createdAt,value
2017-11-15T00:01:26.150Z,13.20
2017-11-15T00:03:53.687Z,15.13
2017-11-15T00:06:21.269Z,15.37
2017-11-15T00:08:48.757Z,14.60
2017-11-15T00:11:16.307Z,14.47
2017-11-15T00:13:43.801Z,14.60
2017-11-15T00:16:11.346Z,14.20
2017-11-15T00:18:38.838Z,15.30
2017-11-15T00:21:06.774Z,14.40
2017-11-15T00:23:35.039Z,14.07
2017-11-15T00:26:02.537Z,14.87
2017-11-15T00:28:30.063Z,15.70
2017-11-15T00:30:57.558Z,14.67
2017-11-15T00:33:25.207Z,15.13
2017-11-15T00:35:52.718Z,15.43
2017-11-15T00:38:21.024Z,13.93
2017-11-15T00:40:48.620Z,15.77
2017-11-15T00:43:16.475Z,13.60
2017-11-15T00:45:43.979Z,14.10
2017-11-15T00:48:11.474Z,14.33
2017-11-15T00:50:39.011Z,14.17
2017-11-15T00:53:06.518Z,15.23
2017-11-15T00:55:34.062Z,13.70
2017-11-15T00:58:01.605Z,14.23
2017-11-15T01:00:29.099Z,16.37
2017-11-15T01:02:56.648Z,14.20
2017-11-15T01:05:24.147Z,14.40
2017-11-15T01:07:51.682Z,14.50
2017-11-15T01:10:19.169Z,15.53
2017-11-15T01:12:46.707Z,15.00
2017-11-15T01:15:14.983Z,13.90
2017-11-15T01:17:42.523Z,14.00
2017-11-15T01:20:10.024Z,15.50
2017-11-15T01:22:37.581Z,14.30
2017-11-15T01:25:05.082Z,14.40
2017-11-15T01:27:32.577Z,13.10
2017-11-15T01:30:00.127Z,14.03
2017-11-15T01:32:28.389Z,15.40
2017-11-15T01:34:55.944Z,15.80
2017-11-15T01:37:23.508Z,14.43
2017-11-15T01:39:51.090Z,13.90
2017-11-15T01:42:19.182Z,13.37
2017-11-15T01:44:46.739Z,14.40
2017-11-15T01:47:14.250Z,14.20
2017-11-15T01:49:41.797Z,14.27
2017-11-15T01:52:09.304Z,14.30
2017-11-15T01:54:36.842Z,14.43
2017-11-15T01:57:04.342Z,13.10
2017-11-15T01:59:31.935Z,13.73
2017-11-15T02:02:00.210Z,14.30
2017-11-15T02:04:27.721Z,14.43
2017-11-15T02:06:55.254Z,13.07
2017-11-15T02:09:22.768Z,14.90
2017-11-15T02:11:50.297Z,13.80
2017-11-15T02:14:18.558Z,13.90
2017-11-15T02:16:46.098Z,15.43
2017-11-15T02:19:13.607Z,12.90
2017-11-15T02:21:41.145Z,14.33
2017-11-15T02:24:08.641Z,15.40
2017-11-15T02:26:36.197Z,14.30
2017-11-15T02:29:03.737Z,12.90
2017-11-15T02:31:32.010Z,15.30
2017-11-15T02:34:00.350Z,14.43
2017-11-15T02:36:27.890Z,15.50
2017-11-15T02:38:55.760Z,14.57
2017-11-15T02:41:23.265Z,15.50
2017-11-15T02:43:50.856Z,16.40
2017-11-15T02:46:18.364Z,15.83
2017-11-15T02:48:46.348Z,17.77
2017-11-15T02:51:14.152Z,17.73
2017-11-15T02:53:41.727Z,19.33
2017-11-15T02:56:09.230Z,20.13
2017-11-15T02:58:36.759Z,20.47
2017-11-15T03:01:04.319Z,19.00
2017-11-15T03:03:32.596Z,20.23
2017-11-15T03:06:00.139Z,18.87
2017-11-15T03:08:27.630Z,22.20
2017-11-15T03:10:55.132Z,21.10
2017-11-15T03:13:23.430Z,21.03
2017-11-15T03:15:50.939Z,20.80
2017-11-15T03:18:18.483Z,20.10
2017-11-15T03:20:45.998Z,20.77
2017-11-15T03:23:13.542Z,19.70
2017-11-15T03:25:41.041Z,19.30
2017-11-15T03:28:10.782Z,20.37
2017-11-15T03:30:39.748Z,21.13
2017-11-15T03:33:07.247Z,20.17
2017-11-15T03:35:36.217Z,19.40
2017-11-15T03:38:03.730Z,18.70
2017-11-15T03:40:31.276Z,19.53
2017-11-15T03:42:58.785Z,19.70
2017-11-15T03:45:30.150Z,20.17
2017-11-15T03:47:58.444Z,19.27
2017-11-15T03:50:26.756Z,18.20
2017-11-15T03:52:54.330Z,19.00
2017-11-15T03:55:21.823Z,19.20
2017-11-15T03:57:49.374Z,17.90
2017-11-15T04:00:16.880Z,19.37
2017-11-15T04:02:44.443Z,18.80
2017-11-15T04:05:11.971Z,19.13
2017-11-15T04:07:39.506Z,19.30
2017-11-15T04:10:07.007Z,17.47
2017-11-15T04:12:35.321Z,18.53
2017-11-15T04:15:02.867Z,18.53
2017-11-15T04:17:30.459Z,19.20
2017-11-15T04:19:58.021Z,19.03
2017-11-15T04:22:26.298Z,19.40
2017-11-15T04:24:53.851Z,19.00
2017-11-15T04:27:21.339Z,17.77
2017-11-15T04:29:50.435Z,17.90
2017-11-15T04:32:18.735Z,18.37
2017-11-15T04:34:47.057Z,21.07
2017-11-15T04:37:14.628Z,20.70
2017-11-15T04:39:42.149Z,19.70
2017-11-15T04:42:09.661Z,18.00
2017-11-15T04:44:37.204Z,17.60
2017-11-15T04:47:04.712Z,17.80
2017-11-15T04:49:32.250Z,17.87
2017-11-15T04:51:59.758Z,17.33
2017-11-15T04:54:27.287Z,17.70
2017-11-15T04:56:54.798Z,19.17
2017-11-15T04:59:22.350Z,18.97
2017-11-15T05:01:50.638Z,18.83
2017-11-15T05:04:18.201Z,19.43
2017-11-15T05:06:45.714Z,17.20
2017-11-15T05:09:15.984Z,20.25
2017-11-15T05:11:43.507Z,19.20
2017-11-15T05:14:11.087Z,18.60
2017-11-15T05:16:38.607Z,19.23
2017-11-15T05:19:06.140Z,18.57
2017-11-15T05:21:33.646Z,17.67
2017-11-15T05:24:01.197Z,19.83
2017-11-15T05:26:28.695Z,19.50
2017-11-15T05:28:56.249Z,18.67
2017-11-15T05:31:23.772Z,17.77
2017-11-15T05:33:52.079Z,17.87
2017-11-15T05:36:19.975Z,18.30
2017-11-15T05:38:47.467Z,17.80
2017-11-15T05:41:14.981Z,18.50
2017-11-15T05:43:43.282Z,18.17
2017-11-15T05:46:11.559Z,18.17
2017-11-15T05:48:39.124Z,18.27
2017-11-15T05:51:06.678Z,18.90
2017-11-15T05:53:34.273Z,16.97
2017-11-15T05:56:01.797Z,16.50
2017-11-15T05:58:29.376Z,16.80
2017-11-15T06:00:56.884Z,17.53
2017-11-15T06:03:24.414Z,18.40
2017-11-15T06:05:52.018Z,17.23
2017-11-15T06:08:19.525Z,16.17
2017-11-15T06:10:48.042Z,18.00
2017-11-15T06:13:16.779Z,16.60
2017-11-15T06:15:44.384Z,16.83
2017-11-15T06:18:11.941Z,16.50
2017-11-15T06:20:40.247Z,15.70
2017-11-15T06:23:07.739Z,16.80
2017-11-15T06:25:36.524Z,18.07
2017-11-15T06:28:04.884Z,16.53
2017-11-15T06:30:32.447Z,17.53
2017-11-15T06:32:59.932Z,17.83
2017-11-15T06:35:27.604Z,17.60
2017-11-15T06:37:55.091Z,17.13
2017-11-15T06:40:22.576Z,15.30
2017-11-15T06:42:50.941Z,15.93
2017-11-15T06:45:18.438Z,17.57
2017-11-15T06:47:45.999Z,17.80
2017-11-15T06:50:14.263Z,15.73
2017-11-15T06:52:41.803Z,14.80
2017-11-15T06:55:09.298Z,17.23
2017-11-15T06:57:36.863Z,18.52
2017-11-15T07:00:04.432Z,16.60
2017-11-15T07:02:31.971Z,16.57
2017-11-15T07:05:00.315Z,18.60
2017-11-15T07:07:27.819Z,15.53
2017-11-15T07:09:56.135Z,16.40
2017-11-15T07:12:23.634Z,16.70
2017-11-15T07:14:51.195Z,15.43
2017-11-15T07:17:18.736Z,15.87
2017-11-15T07:19:47.058Z,17.43
2017-11-15T07:22:14.564Z,16.10
2017-11-15T07:24:42.087Z,17.83
2017-11-15T07:27:09.637Z,17.63
2017-11-15T07:29:37.400Z,15.27
2017-11-15T07:32:04.937Z,16.37
2017-11-15T07:34:32.452Z,17.83
2017-11-15T07:37:00.771Z,17.87
2017-11-15T07:39:28.279Z,19.00
2017-11-15T07:41:57.756Z,16.00
2017-11-15T07:44:25.297Z,16.90
2017-11-15T07:46:52.815Z,17.27
2017-11-15T07:49:20.352Z,16.30
2017-11-15T07:51:49.734Z,18.10
2017-11-15T07:54:17.286Z,15.83
2017-11-15T07:56:44.795Z,16.13
2017-11-15T07:59:12.344Z,14.83
2017-11-15T08:01:39.855Z,16.70
2017-11-15T08:04:08.160Z,15.50
2017-11-15T08:06:35.677Z,17.07
2017-11-15T08:09:03.207Z,16.03
2017-11-15T08:11:30.709Z,16.23
2017-11-15T08:13:58.282Z,17.00
2017-11-15T08:16:25.794Z,15.07
2017-11-15T08:18:53.315Z,17.17
2017-11-15T08:21:20.859Z,16.00
2017-11-15T08:23:48.362Z,15.30
2017-11-15T08:26:15.911Z,14.73
2017-11-15T08:28:43.414Z,16.27
2017-11-15T08:31:10.969Z,16.20
2017-11-15T08:33:38.499Z,15.70
2017-11-15T08:36:06.840Z,15.57
2017-11-15T08:38:34.344Z,15.50
2017-11-15T08:41:01.845Z,15.40
2017-11-15T08:43:30.154Z,13.73
2017-11-15T08:45:57.671Z,15.17
2017-11-15T08:48:25.235Z,13.90
2017-11-15T08:50:52.744Z,16.27
2017-11-15T08:53:21.047Z,15.03
2017-11-15T08:55:49.329Z,14.07
2017-11-15T08:58:17.658Z,15.00
2017-11-15T09:00:45.170Z,14.83
2017-11-15T09:03:12.769Z,13.93
2017-11-15T09:05:40.276Z,16.17
2017-11-15T09:08:08.221Z,14.30
2017-11-15T09:10:36.531Z,14.90
2017-11-15T09:13:04.032Z,14.53
2017-11-15T09:15:31.563Z,13.60
2017-11-15T09:17:59.071Z,15.87
2017-11-15T09:20:26.872Z,13.87
2017-11-15T09:22:54.382Z,14.07
2017-11-15T09:25:21.919Z,14.53
2017-11-15T09:27:49.428Z,12.87
2017-11-15T09:30:17.040Z,15.43
2017-11-15T09:32:44.538Z,13.53
2017-11-15T09:35:12.046Z,13.13
2017-11-15T09:37:39.591Z,13.60
2017-11-15T09:40:07.876Z,11.40
2017-11-15T09:42:36.190Z,13.10
2017-11-15T09:45:04.446Z,13.30
2017-11-15T09:47:31.988Z,12.50
2017-11-15T09:49:59.505Z,12.10
2017-11-15T09:52:27.834Z,13.13
2017-11-15T09:54:55.336Z,13.30
2017-11-15T09:57:22.877Z,13.80
2017-11-15T09:59:50.397Z,12.47
2017-11-15T10:02:18.331Z,13.10
2017-11-15T10:04:45.865Z,13.90
2017-11-15T10:07:13.383Z,13.10
2017-11-15T10:09:40.914Z,13.10
2017-11-15T10:12:09.178Z,12.93
2017-11-15T10:14:36.723Z,13.67
2017-11-15T10:17:04.559Z,13.90
2017-11-15T10:19:32.112Z,12.97
2017-11-15T10:21:59.631Z,12.43
2017-11-15T10:24:27.188Z,13.80
2017-11-15T10:26:54.691Z,12.60
2017-11-15T10:29:22.206Z,12.23
2017-11-15T10:31:50.537Z,13.20
2017-11-15T10:34:18.068Z,14.00
2017-11-15T10:36:46.475Z,12.60
2017-11-15T10:39:14.738Z,14.27
2017-11-15T10:41:42.279Z,12.97
2017-11-15T10:44:09.800Z,11.77
2017-11-15T10:46:38.112Z,13.10
2017-11-15T10:49:05.627Z,12.63
2017-11-15T10:51:33.163Z,13.13
2017-11-15T10:54:00.672Z,13.13
2017-11-15T10:56:28.391Z,13.30
2017-11-15T10:58:56.656Z,13.40
2017-11-15T11:01:24.174Z,12.53
2017-11-15T11:03:51.707Z,12.93
2017-11-15T11:06:19.979Z,12.20
2017-11-15T11:08:47.530Z,12.10
2017-11-15T11:11:15.039Z,11.50
2017-11-15T11:13:43.338Z,10.80
2017-11-15T11:16:11.610Z,11.40
2017-11-15T11:18:39.146Z,12.03
2017-11-15T11:21:06.706Z,11.20
2017-11-15T11:23:34.244Z,9.80
2017-11-15T11:26:02.532Z,11.90
2017-11-15T11:28:30.864Z,11.23
2017-11-15T11:30:58.362Z,12.57
2017-11-15T11:33:25.867Z,11.20
2017-11-15T11:35:54.175Z,10.57
2017-11-15T11:38:21.697Z,11.53
2017-11-15T11:40:49.235Z,11.03
2017-11-15T11:43:16.739Z,9.97
2017-11-15T11:45:44.288Z,11.30
2017-11-15T11:48:11.790Z,10.57
2017-11-15T11:50:39.322Z,12.40
2017-11-15T11:53:06.832Z,11.57
2017-11-15T11:55:34.370Z,10.10
2017-11-15T11:58:02.126Z,10.60
2017-11-15T12:00:29.672Z,11.07
2017-11-15T12:02:58.071Z,10.40
2017-11-15T12:05:26.353Z,9.93
2017-11-15T12:07:54.672Z,11.17
2017-11-15T12:10:22.176Z,11.10
2017-11-15T12:12:49.728Z,10.60
2017-11-15T12:15:17.241Z,10.10
2017-11-15T12:17:44.792Z,10.60
2017-11-15T12:20:12.294Z,11.03
2017-11-15T12:22:39.851Z,9.93
2017-11-15T12:25:07.404Z,11.17
2017-11-15T12:27:34.907Z,10.73
2017-11-15T12:30:02.459Z,11.27
2017-11-15T12:32:29.966Z,10.17
2017-11-15T12:34:58.266Z,11.73
2017-11-15T12:37:25.826Z,10.70
2017-11-15T12:39:54.151Z,10.50
2017-11-15T12:42:21.664Z,10.40
2017-11-15T12:44:49.263Z,9.30
2017-11-15T12:47:17.548Z,9.50
2017-11-15T12:49:46.172Z,9.20
2017-11-15T12:52:13.700Z,10.30
2017-11-15T12:54:41.194Z,9.87
2017-11-15T12:57:08.754Z,10.73
2017-11-15T12:59:37.449Z,12.10
2017-11-15T13:02:04.997Z,10.40
2017-11-15T13:04:32.508Z,9.77
2017-11-15T13:07:00.058Z,10.60
2017-11-15T13:09:27.580Z,10.83
2017-11-15T13:11:55.185Z,10.57
2017-11-15T13:14:22.697Z,10.93
2017-11-15T13:16:50.986Z,10.67
2017-11-15T13:19:19.389Z,10.50
2017-11-15T13:21:46.947Z,12.00
2017-11-15T13:24:14.489Z,11.27
2017-11-15T13:26:42.019Z,13.20
2017-11-15T13:29:09.652Z,12.33
2017-11-15T13:31:37.176Z,12.60
2017-11-15T13:34:04.725Z,12.13
2017-11-15T13:36:32.230Z,10.43
2017-11-15T13:39:00.081Z,11.17
2017-11-15T13:41:27.591Z,11.07
2017-11-15T13:43:55.106Z,10.10
2017-11-15T13:46:23.448Z,10.63
2017-11-15T13:48:50.968Z,10.10
2017-11-15T13:51:19.297Z,9.70
2017-11-15T13:53:48.528Z,10.67
2017-11-15T13:56:16.132Z,8.70
2017-11-15T13:58:47.282Z,9.00
2017-11-15T14:01:14.828Z,10.00
2017-11-15T14:03:42.367Z,9.83
2017-11-15T14:06:09.893Z,9.43
2017-11-15T14:08:39.920Z,9.30
2017-11-15T14:11:07.587Z,10.00
2017-11-15T14:13:35.198Z,10.43
2017-11-15T14:16:03.523Z,10.23
2017-11-15T14:18:31.445Z,10.77
2017-11-15T14:20:59.029Z,10.27
2017-11-15T14:23:26.641Z,9.73
2017-11-15T14:25:54.198Z,11.10
2017-11-15T14:28:21.711Z,11.20
2017-11-15T14:30:49.264Z,10.53
2017-11-15T14:33:16.787Z,11.37
2017-11-15T14:35:44.386Z,11.10
2017-11-15T14:38:11.932Z,12.43
2017-11-15T14:40:39.470Z,13.47
2017-11-15T14:43:06.979Z,12.67
2017-11-15T14:45:34.541Z,14.43
2017-11-15T14:48:02.066Z,14.63
2017-11-15T14:50:29.563Z,12.93
2017-11-15T14:52:57.127Z,13.73
2017-11-15T14:55:24.631Z,13.60
2017-11-15T14:57:52.164Z,11.47
2017-11-15T15:00:19.684Z,11.20
2017-11-15T15:02:47.807Z,10.50
2017-11-15T15:05:15.312Z,11.17
2017-11-15T15:07:42.864Z,9.47
2017-11-15T15:10:10.370Z,9.00
2017-11-15T15:12:37.932Z,8.70
2017-11-15T15:15:05.435Z,9.87
2017-11-15T15:17:32.937Z,7.50
2017-11-15T15:20:00.479Z,8.07
2017-11-15T15:22:28.754Z,10.83
2017-11-15T15:24:56.307Z,11.07
2017-11-15T15:27:23.815Z,12.40
2017-11-15T15:29:51.353Z,13.93
2017-11-15T15:32:18.866Z,13.83
2017-11-15T15:34:47.187Z,13.63
2017-11-15T15:37:14.689Z,13.50
2017-11-15T15:39:42.207Z,14.80
2017-11-15T15:42:10.508Z,15.23
2017-11-15T15:44:38.074Z,16.97
2017-11-15T15:47:05.618Z,16.90
2017-11-15T15:49:33.118Z,12.87
2017-11-15T15:52:00.657Z,11.47
2017-11-15T15:54:28.163Z,11.50
2017-11-15T15:56:55.714Z,10.77
2017-11-15T15:59:23.214Z,8.80
2017-11-15T16:01:50.754Z,10.20
2017-11-15T16:04:18.303Z,8.93
2017-11-15T16:06:45.809Z,9.83
2017-11-15T16:09:14.170Z,9.40
2017-11-15T16:11:41.684Z,11.90
2017-11-15T16:14:09.220Z,13.70
2017-11-15T16:16:36.763Z,11.40
2017-11-15T16:19:04.327Z,9.70
2017-11-15T16:21:31.834Z,10.43
2017-11-15T16:23:59.361Z,10.70
2017-11-15T16:26:26.882Z,11.50
2017-11-15T16:28:54.383Z,11.50
2017-11-15T16:31:22.699Z,10.30
2017-11-15T16:33:50.204Z,9.87
2017-11-15T16:36:17.751Z,9.00
2017-11-15T16:38:45.269Z,8.00
2017-11-15T16:41:12.830Z,8.63
2017-11-15T16:43:40.333Z,8.60
2017-11-15T16:46:07.884Z,8.70
2017-11-15T16:48:36.200Z,7.33
2017-11-15T16:51:03.743Z,10.00
2017-11-15T16:53:31.252Z,7.83
2017-11-15T16:55:58.811Z,8.13
2017-11-15T16:58:26.335Z,7.20
2017-11-15T17:00:53.839Z,7.50
2017-11-15T17:03:22.148Z,6.73
2017-11-15T17:05:49.655Z,6.83
2017-11-15T17:08:17.308Z,7.30
2017-11-15T17:10:44.865Z,7.90
2017-11-15T17:13:12.414Z,8.63
2017-11-15T17:15:39.903Z,8.40
2017-11-15T17:18:08.242Z,8.37
2017-11-15T17:20:35.747Z,9.00
2017-11-15T17:23:03.249Z,8.37
2017-11-15T17:25:30.841Z,8.50
2017-11-15T17:27:58.354Z,9.50
2017-11-15T17:30:25.890Z,9.27
2017-11-15T17:32:53.412Z,10.20
2017-11-15T17:35:21.710Z,9.10
2017-11-15T17:37:49.994Z,10.23
2017-11-15T17:40:18.315Z,9.60
2017-11-15T17:42:45.820Z,10.20
2017-11-15T17:45:13.331Z,10.70
2017-11-15T17:47:41.672Z,9.60
2017-11-15T17:50:09.180Z,11.50
2017-11-15T17:52:37.508Z,11.07
2017-11-15T17:55:05.015Z,8.97
2017-11-15T17:57:32.548Z,9.07
2017-11-15T18:00:00.055Z,7.20
2017-11-15T18:02:27.590Z,6.90
2017-11-15T18:04:55.126Z,6.33
2017-11-15T18:07:22.667Z,7.10
2017-11-15T18:09:50.194Z,6.37
2017-11-15T18:12:19.069Z,6.30
2017-11-15T18:14:46.625Z,6.27
2017-11-15T18:17:14.137Z,5.73
2017-11-15T18:19:42.441Z,6.10
2017-11-15T18:22:09.935Z,6.40
2017-11-15T18:24:37.477Z,6.40
2017-11-15T18:27:05.025Z,6.80
2017-11-15T18:29:32.943Z,7.13
2017-11-15T18:32:00.451Z,6.73
2017-11-15T18:34:27.960Z,8.43
2017-11-15T18:36:56.276Z,8.37
2017-11-15T18:39:23.810Z,7.83
2017-11-15T18:41:51.342Z,6.20
2017-11-15T18:44:18.839Z,6.60
2017-11-15T18:46:47.218Z,7.10
2017-11-15T18:49:14.765Z,6.67
2017-11-15T18:51:42.476Z,7.10
2017-11-15T18:54:10.448Z,9.50
2017-11-15T18:56:37.934Z,6.30
2017-11-15T18:59:05.470Z,7.80
2017-11-15T19:01:32.986Z,7.60
2017-11-15T19:04:00.518Z,7.37
2017-11-15T19:06:28.007Z,6.63
2017-11-15T19:08:55.548Z,6.40
2017-11-15T19:11:23.053Z,7.10
2017-11-15T19:13:50.554Z,6.30
2017-11-15T19:16:18.859Z,6.73
2017-11-15T19:18:46.362Z,6.70
2017-11-15T19:21:13.939Z,6.40
2017-11-15T19:23:41.476Z,6.10
2017-11-15T19:26:08.977Z,5.73
2017-11-15T19:28:36.517Z,5.83
2017-11-15T19:31:04.031Z,5.63
2017-11-15T19:33:31.584Z,5.10
2017-11-15T19:35:59.096Z,5.87
2017-11-15T19:38:27.454Z,5.10
2017-11-15T19:40:54.968Z,5.37
2017-11-15T19:43:22.501Z,5.10
2017-11-15T19:45:50.100Z,5.50
2017-11-15T19:48:21.449Z,4.60
2017-11-15T19:50:48.960Z,4.90
2017-11-15T19:53:18.337Z,5.00
2017-11-15T19:55:46.638Z,5.03
2017-11-15T19:58:14.135Z,4.80
2017-11-15T20:00:41.678Z,4.47
2017-11-15T20:03:09.179Z,5.40
2017-11-15T20:05:37.690Z,5.03
2017-11-15T20:08:05.203Z,5.27
2017-11-15T20:10:32.756Z,5.67
2017-11-15T20:13:00.257Z,4.83
2017-11-15T20:15:29.621Z,4.93
2017-11-15T20:17:57.127Z,4.13
2017-11-15T20:20:24.636Z,4.70
2017-11-15T20:22:52.198Z,4.50
2017-11-15T20:25:19.694Z,4.60
2017-11-15T20:27:47.230Z,3.93
2017-11-15T20:30:14.733Z,4.30
2017-11-15T20:32:42.352Z,5.20
2017-11-15T20:35:09.861Z,4.80
2017-11-15T20:37:37.729Z,4.60
2017-11-15T20:40:05.231Z,4.43
2017-11-15T20:42:32.761Z,5.07
2017-11-15T20:45:00.310Z,5.20
2017-11-15T20:47:27.852Z,4.50
2017-11-15T20:49:56.236Z,5.10
2017-11-15T20:52:24.653Z,5.37
2017-11-15T20:54:52.216Z,5.37
2017-11-15T20:57:19.727Z,5.23
2017-11-15T20:59:47.228Z,5.57
2017-11-15T21:02:14.805Z,6.03
2017-11-15T21:04:42.316Z,5.90
2017-11-15T21:07:09.880Z,5.87
2017-11-15T21:09:37.375Z,5.30
2017-11-15T21:12:04.935Z,4.80
2017-11-15T21:14:32.435Z,5.63
2017-11-15T21:17:00.074Z,5.20
2017-11-15T21:19:27.892Z,5.63
2017-11-15T21:21:55.439Z,5.30
2017-11-15T21:24:22.944Z,5.77
2017-11-15T21:26:50.524Z,5.43
2017-11-15T21:29:18.108Z,5.50
2017-11-15T21:31:45.643Z,5.63
2017-11-15T21:34:13.184Z,6.73
2017-11-15T21:36:40.695Z,6.43
2017-11-15T21:39:08.254Z,5.80
2017-11-15T21:41:35.743Z,6.73
2017-11-15T21:44:03.283Z,6.47
2017-11-15T21:46:30.817Z,8.73
2017-11-15T21:48:59.322Z,7.47
2017-11-15T21:51:27.603Z,6.40
2017-11-15T21:53:55.867Z,6.70
2017-11-15T21:56:23.488Z,7.27
2017-11-15T21:58:50.990Z,7.03
2017-11-15T22:01:18.862Z,7.93
2017-11-15T22:03:46.378Z,8.50
2017-11-15T22:06:13.920Z,7.90
2017-11-15T22:08:41.433Z,7.23
2017-11-15T22:11:08.985Z,9.27
2017-11-15T22:13:36.479Z,8.93
2017-11-15T22:16:04.023Z,9.27
2017-11-15T22:18:31.530Z,8.70
2017-11-15T22:20:59.937Z,8.30
2017-11-15T22:23:27.506Z,9.90
2017-11-15T22:25:55.084Z,8.97
2017-11-15T22:28:22.622Z,9.07
2017-11-15T22:30:50.951Z,7.97
2017-11-15T22:35:52.479Z,8.20
2017-11-15T22:38:20.014Z,9.40
2017-11-15T22:40:47.517Z,8.70
2017-11-15T22:43:15.847Z,8.40
2017-11-15T22:45:43.343Z,7.97
2017-11-15T22:48:10.849Z,8.00
2017-11-15T22:50:38.406Z,8.80
2017-11-15T22:53:05.907Z,9.93
2017-11-15T22:55:33.453Z,11.67
2017-11-15T22:58:00.951Z,9.97
2017-11-15T23:00:28.539Z,10.60
2017-11-15T23:02:56.807Z,10.27
2017-11-15T23:05:24.355Z,12.07
2017-11-15T23:07:51.911Z,7.90
2017-11-15T23:10:19.489Z,7.20
2017-11-15T23:12:47.002Z,7.37
2017-11-15T23:15:27.416Z,7.10
2017-11-15T23:17:55.683Z,7.53
2017-11-15T23:20:23.284Z,6.00
2017-11-15T23:22:50.798Z,6.57
2017-11-15T23:25:18.310Z,6.47
2017-11-15T23:27:46.639Z,6.10
2017-11-15T23:30:14.138Z,6.27
2017-11-15T23:32:41.682Z,7.70
2017-11-15T23:35:09.253Z,6.40
2017-11-15T23:37:36.803Z,5.90
2017-11-15T23:40:04.295Z,5.77
2017-11-15T23:42:31.803Z,6.20
2017-11-15T23:44:59.344Z,6.00
2017-11-15T23:47:26.871Z,5.93
2017-11-15T23:49:54.409Z,6.60
2017-11-15T23:52:21.906Z,6.33
2017-11-15T23:54:49.478Z,5.50
2017-11-15T23:57:16.995Z,6.93
2017-11-15T23:59:44.528Z,5.90
